createdAt,value
2017-12-05T00:01:25.781Z,10.50
2017-12-05T00:03:53.227Z,10.70
2017-12-05T00:06:20.666Z,10.40
2017-12-05T00:08:48.125Z,10.10
2017-12-05T00:11:15.589Z,9.50
2017-12-05T00:13:43.045Z,9.70
2017-12-05T00:16:10.514Z,9.80
2017-12-05T00:18:37.941Z,10.30
2017-12-05T00:21:06.172Z,10.20
2017-12-05T00:23:33.626Z,10.20
2017-12-05T00:26:01.093Z,10.20
2017-12-05T00:28:28.541Z,10.10
2017-12-05T00:30:55.987Z,10.30
2017-12-05T00:33:23.430Z,10.20
2017-12-05T00:35:50.922Z,10.10
2017-12-05T00:38:18.373Z,10.30
2017-12-05T00:40:45.863Z,10.10
2017-12-05T00:43:13.300Z,10.00
2017-12-05T00:45:40.766Z,10.30
2017-12-05T00:48:08.221Z,10.20
2017-12-05T00:50:35.660Z,10.40
2017-12-05T00:53:03.117Z,10.80
2017-12-05T00:55:30.576Z,10.80
2017-12-05T00:57:58.055Z,10.70
2017-12-05T01:00:25.497Z,10.30
2017-12-05T01:02:52.952Z,10.70
2017-12-05T01:05:20.404Z,10.30
2017-12-05T01:07:47.898Z,10.10
2017-12-05T01:10:15.365Z,10.70
2017-12-05T01:12:43.597Z,11.00
2017-12-05T01:15:11.809Z,11.00
2017-12-05T01:17:39.262Z,11.00
2017-12-05T01:20:06.717Z,11.10
2017-12-05T01:22:34.172Z,10.80
2017-12-05T01:25:01.631Z,10.20
2017-12-05T01:27:29.085Z,10.80
2017-12-05T01:29:56.536Z,10.60
2017-12-05T01:32:23.982Z,10.20
2017-12-05T01:34:51.472Z,10.50
2017-12-05T01:37:20.491Z,10.60
2017-12-05T01:39:49.167Z,10.80
2017-12-05T01:42:17.388Z,11.00
2017-12-05T01:44:44.811Z,11.00
2017-12-05T01:47:12.252Z,11.20
2017-12-05T01:49:40.510Z,10.20
2017-12-05T01:52:07.968Z,10.20
2017-12-05T01:54:35.423Z,10.50
2017-12-05T01:57:02.906Z,10.30
2017-12-05T01:59:32.124Z,10.50
2017-12-05T02:02:00.179Z,10.50
2017-12-05T02:04:28.384Z,10.80
2017-12-05T02:06:55.825Z,10.80
2017-12-05T02:09:23.274Z,10.50
2017-12-05T02:11:51.529Z,10.30
2017-12-05T02:14:19.733Z,10.30
2017-12-05T02:16:47.207Z,10.30
2017-12-05T02:19:14.702Z,9.60
2017-12-05T02:21:42.160Z,9.60
2017-12-05T02:24:09.626Z,10.00
2017-12-05T02:26:37.096Z,10.10
2017-12-05T02:29:04.544Z,9.90
2017-12-05T02:31:32.023Z,9.70
2017-12-05T02:34:00.174Z,10.10
2017-12-05T02:36:28.029Z,9.60
2017-12-05T02:38:55.437Z,9.60
2017-12-05T02:41:22.913Z,9.70
2017-12-05T02:43:50.374Z,10.10
2017-12-05T02:46:17.815Z,9.80
2017-12-05T02:48:45.292Z,9.90
2017-12-05T02:51:12.750Z,9.80
2017-12-05T02:53:40.222Z,10.20
2017-12-05T02:56:07.671Z,10.60
2017-12-05T02:58:35.130Z,10.60
2017-12-05T03:01:02.571Z,10.60
2017-12-05T03:03:30.026Z,9.90
2017-12-05T03:05:57.487Z,9.80
2017-12-05T03:08:24.978Z,9.80
2017-12-05T03:10:52.426Z,9.70
2017-12-05T03:13:19.868Z,10.40
2017-12-05T03:15:47.344Z,9.80
2017-12-05T03:18:14.801Z,9.60
2017-12-05T03:20:42.263Z,9.60
2017-12-05T03:23:09.705Z,9.70
2017-12-05T03:25:37.161Z,10.00
2017-12-05T03:28:04.629Z,9.70
2017-12-05T03:30:32.087Z,9.60
2017-12-05T03:33:00.266Z,9.50
2017-12-05T03:35:27.725Z,9.40
2017-12-05T03:37:55.165Z,9.80
2017-12-05T03:40:22.626Z,9.60
2017-12-05T03:42:50.082Z,9.60
2017-12-05T03:45:17.534Z,9.70
2017-12-05T03:47:45.002Z,9.60
2017-12-05T03:50:12.457Z,9.80
2017-12-05T03:52:39.926Z,9.50
2017-12-05T03:55:07.380Z,9.80
2017-12-05T03:57:34.832Z,9.80
2017-12-05T04:00:02.277Z,10.00
2017-12-05T04:02:29.765Z,10.10
2017-12-05T04:04:57.225Z,10.10
2017-12-05T04:07:25.436Z,10.10
2017-12-05T04:09:53.653Z,9.60
2017-12-05T04:12:21.105Z,9.60
2017-12-05T04:14:48.543Z,10.00
2017-12-05T04:17:16.774Z,10.10
2017-12-05T04:19:44.229Z,10.00
2017-12-05T04:22:11.665Z,10.30
2017-12-05T04:24:39.147Z,10.00
2017-12-05T04:27:06.602Z,9.80
2017-12-05T04:29:34.068Z,9.60
2017-12-05T04:32:01.521Z,9.40
2017-12-05T04:34:28.989Z,9.80
2017-12-05T04:36:56.441Z,10.10
2017-12-05T04:39:23.901Z,9.90
2017-12-05T04:41:51.364Z,9.70
2017-12-05T04:44:19.567Z,9.90
2017-12-05T04:46:47.775Z,10.20
2017-12-05T04:49:15.212Z,10.20
2017-12-05T04:51:42.653Z,9.60
2017-12-05T04:54:10.088Z,9.60
2017-12-05T04:56:38.798Z,9.50
2017-12-05T04:59:06.232Z,9.50
2017-12-05T05:01:34.513Z,9.60
2017-12-05T05:04:02.738Z,9.90
2017-12-05T05:06:30.180Z,9.90
2017-12-05T05:08:57.633Z,9.30
2017-12-05T05:11:25.097Z,9.40
2017-12-05T05:13:52.553Z,9.50
2017-12-05T05:16:20.927Z,10.00
2017-12-05T05:18:48.374Z,10.00
2017-12-05T05:21:16.566Z,9.80
2017-12-05T05:23:44.017Z,9.80
2017-12-05T05:26:11.488Z,9.40
2017-12-05T05:28:38.926Z,9.90
2017-12-05T05:31:07.140Z,9.60
2017-12-05T05:33:34.582Z,9.60
2017-12-05T05:36:02.114Z,9.60
2017-12-05T05:38:29.569Z,9.70
2017-12-05T05:40:57.033Z,9.60
2017-12-05T05:43:24.506Z,9.10
2017-12-05T05:45:51.957Z,9.30
2017-12-05T05:48:19.440Z,9.40
2017-12-05T05:50:46.903Z,9.60
2017-12-05T05:53:14.357Z,9.60
2017-12-05T05:55:41.794Z,9.50
2017-12-05T05:58:09.259Z,10.00
2017-12-05T06:00:36.696Z,9.90
2017-12-05T06:03:04.147Z,9.30
2017-12-05T06:05:31.605Z,9.40
2017-12-05T06:07:59.084Z,9.90
2017-12-05T06:10:26.536Z,9.60
2017-12-05T06:15:28.712Z,8.80
2017-12-05T06:17:56.174Z,8.80
2017-12-05T06:20:23.646Z,9.30
2017-12-05T06:22:51.100Z,9.40
2017-12-05T06:25:18.575Z,9.80
2017-12-05T06:27:46.038Z,9.50
2017-12-05T06:30:13.505Z,9.50
2017-12-05T06:32:40.954Z,9.50
2017-12-05T06:35:08.408Z,9.50
2017-12-05T06:37:35.888Z,9.80
2017-12-05T06:40:03.339Z,9.80
2017-12-05T06:42:30.790Z,9.60
2017-12-05T06:44:58.253Z,9.30
2017-12-05T06:47:25.705Z,9.80
2017-12-05T06:49:53.169Z,9.80
2017-12-05T06:52:20.601Z,9.60
2017-12-05T06:54:48.061Z,9.00
2017-12-05T06:57:15.518Z,9.30
2017-12-05T06:59:42.987Z,9.60
2017-12-05T07:02:10.443Z,10.10
2017-12-05T07:04:37.927Z,9.50
2017-12-05T07:07:05.380Z,9.70
2017-12-05T07:09:32.860Z,10.00
2017-12-05T07:12:02.345Z,9.70
2017-12-05T07:14:29.800Z,9.70
2017-12-05T07:16:57.281Z,10.20
2017-12-05T07:19:25.472Z,10.30
2017-12-05T07:21:52.905Z,10.30
2017-12-05T07:24:21.104Z,10.20
2017-12-05T07:26:48.561Z,10.10
2017-12-05T07:29:16.743Z,10.40
2017-12-05T07:31:44.195Z,10.40
2017-12-05T07:34:12.402Z,10.50
2017-12-05T07:36:39.848Z,10.50
2017-12-05T07:39:07.268Z,10.80
2017-12-05T07:41:35.477Z,10.20
2017-12-05T07:44:02.917Z,10.10
2017-12-05T07:46:30.378Z,10.20
2017-12-05T07:48:57.805Z,9.70
2017-12-05T07:51:26.005Z,9.70
2017-12-05T07:53:53.464Z,9.70
2017-12-05T07:56:20.937Z,10.00
2017-12-05T07:58:48.378Z,9.80
2017-12-05T08:01:15.857Z,9.60
2017-12-05T08:03:43.300Z,10.00
2017-12-05T08:06:11.493Z,10.20
2017-12-05T08:08:38.948Z,10.10
2017-12-05T08:11:06.421Z,9.90
2017-12-05T08:13:33.923Z,10.00
2017-12-05T08:16:01.333Z,9.50
2017-12-05T08:18:28.778Z,9.60
2017-12-05T08:20:56.241Z,9.60
2017-12-05T08:23:23.909Z,9.40
2017-12-05T08:25:51.424Z,9.70
2017-12-05T08:28:19.641Z,9.80
2017-12-05T08:30:47.101Z,9.90
2017-12-05T08:33:14.556Z,9.50
2017-12-05T08:35:42.003Z,9.10
2017-12-05T08:38:09.481Z,9.10
2017-12-05T08:40:36.924Z,9.50
2017-12-05T08:43:04.397Z,10.00
2017-12-05T08:45:31.845Z,10.40
2017-12-05T08:47:59.297Z,10.10
2017-12-05T08:50:26.761Z,10.10
2017-12-05T08:52:54.230Z,10.30
2017-12-05T08:55:21.697Z,10.60
2017-12-05T08:57:49.137Z,10.80
2017-12-05T09:00:16.608Z,10.60
2017-12-05T09:02:44.058Z,10.30
2017-12-05T09:05:11.514Z,10.40
2017-12-05T09:07:38.974Z,10.90
2017-12-05T09:10:06.428Z,10.80
2017-12-05T09:12:33.926Z,10.70
2017-12-05T09:15:02.179Z,10.80
2017-12-05T09:17:29.662Z,10.80
2017-12-05T09:19:57.109Z,10.50
2017-12-05T09:22:24.576Z,10.10
2017-12-05T09:24:52.023Z,10.50
2017-12-05T09:27:20.262Z,10.50
2017-12-05T09:29:47.732Z,10.50
2017-12-05T09:32:15.229Z,10.90
2017-12-05T09:34:42.684Z,10.50
2017-12-05T09:37:10.155Z,10.70
2017-12-05T09:39:37.602Z,10.60
2017-12-05T09:42:05.061Z,10.50
2017-12-05T09:44:32.509Z,10.30
2017-12-05T09:46:59.961Z,10.20
2017-12-05T09:49:27.442Z,10.50
2017-12-05T09:51:54.914Z,10.70
2017-12-05T09:54:22.425Z,10.80
2017-12-05T09:56:49.874Z,10.90
2017-12-05T09:59:17.354Z,10.30
2017-12-05T10:01:45.069Z,10.60
2017-12-05T10:04:12.567Z,10.70
2017-12-05T10:06:40.028Z,10.70
2017-12-05T10:09:07.512Z,10.40
2017-12-05T10:11:35.705Z,9.80
2017-12-05T10:14:03.132Z,9.80
2017-12-05T10:16:31.341Z,10.10
2017-12-05T10:18:58.805Z,10.10
2017-12-05T10:21:26.234Z,10.30
2017-12-05T10:23:54.444Z,10.30
2017-12-05T10:26:21.898Z,10.20
2017-12-05T10:28:49.322Z,10.30
2017-12-05T10:31:17.576Z,10.80
2017-12-05T10:33:45.040Z,10.70
2017-12-05T10:36:12.517Z,10.80
2017-12-05T10:38:40.725Z,10.60
2017-12-05T10:41:08.166Z,10.60
2017-12-05T10:43:35.644Z,10.70
2017-12-05T10:46:03.100Z,10.40
2017-12-05T10:48:30.538Z,9.90
2017-12-05T10:50:57.989Z,10.40
2017-12-05T10:53:26.205Z,9.90
2017-12-05T10:55:53.661Z,9.90
2017-12-05T10:58:21.121Z,10.20
2017-12-05T11:00:48.572Z,10.30
2017-12-05T11:03:16.042Z,10.00
2017-12-05T11:05:43.488Z,10.40
2017-12-05T11:08:10.930Z,10.50
2017-12-05T11:10:38.409Z,10.70
2017-12-05T11:13:05.851Z,11.30
2017-12-05T11:15:33.306Z,11.40
2017-12-05T11:18:01.557Z,11.60
2017-12-05T11:20:29.770Z,11.30
2017-12-05T11:22:57.213Z,11.20
2017-12-05T11:25:24.745Z,11.40
2017-12-05T11:27:52.314Z,11.00
2017-12-05T11:30:21.537Z,10.90
2017-12-05T11:32:49.032Z,10.90
2017-12-05T11:35:16.496Z,11.10
2017-12-05T11:37:47.012Z,11.00
2017-12-05T11:40:34.090Z,10.70
2017-12-05T11:43:04.703Z,10.50
2017-12-05T11:48:32.551Z,10.70
2017-12-05T11:51:03.658Z,10.80
2017-12-05T11:53:31.122Z,10.80
2017-12-05T11:55:58.581Z,10.60
2017-12-05T11:58:26.081Z,11.00
2017-12-05T12:00:53.536Z,11.20
2017-12-05T12:03:21.020Z,11.30
2017-12-05T12:05:49.259Z,11.40
2017-12-05T12:08:17.457Z,11.10
2017-12-05T12:10:44.907Z,11.10
2017-12-05T12:13:12.355Z,11.20
2017-12-05T12:15:40.605Z,10.40
2017-12-05T12:18:08.071Z,10.40
2017-12-05T12:20:35.541Z,10.50
2017-12-05T12:23:03.161Z,10.30
2017-12-05T12:25:31.385Z,10.70
2017-12-05T12:27:58.822Z,10.60
2017-12-05T12:30:26.297Z,10.90
2017-12-05T12:32:53.785Z,11.00
2017-12-05T12:35:21.238Z,10.10
2017-12-05T12:37:50.219Z,10.60
2017-12-05T12:40:17.700Z,10.60
2017-12-05T12:42:45.900Z,10.90
2017-12-05T12:45:13.321Z,10.90
2017-12-05T12:47:41.537Z,10.40
2017-12-05T12:50:08.982Z,10.40
2017-12-05T12:52:36.425Z,10.30
2017-12-05T12:55:04.660Z,10.90
2017-12-05T12:57:32.222Z,10.90
2017-12-05T13:02:34.740Z,11.00
2017-12-05T13:05:02.998Z,11.20
2017-12-05T13:07:30.454Z,11.20
2017-12-05T13:09:57.911Z,11.30
2017-12-05T13:12:25.385Z,11.50
2017-12-05T13:14:53.581Z,10.70
2017-12-05T13:17:21.055Z,10.60
2017-12-05T13:19:48.488Z,11.20
2017-12-05T13:22:16.703Z,10.90
2017-12-05T13:24:44.133Z,10.90
2017-12-05T13:27:11.581Z,11.30
2017-12-05T13:29:39.809Z,10.90
2017-12-05T13:32:07.225Z,10.90
2017-12-05T13:34:34.701Z,10.60
2017-12-05T13:37:02.261Z,10.90
2017-12-05T13:39:29.725Z,11.30
2017-12-05T13:41:57.182Z,11.10
2017-12-05T13:44:24.621Z,11.00
2017-12-05T13:46:52.094Z,10.70
2017-12-05T13:49:19.562Z,11.00
2017-12-05T13:51:47.023Z,11.10
2017-12-05T13:54:14.505Z,11.10
2017-12-05T13:56:41.952Z,11.40
2017-12-05T13:59:09.380Z,11.20
2017-12-05T14:01:36.853Z,11.00
2017-12-05T14:04:04.319Z,11.20
2017-12-05T14:06:31.757Z,11.00
2017-12-05T14:08:59.209Z,10.80
2017-12-05T14:11:26.698Z,11.20
2017-12-05T14:13:54.153Z,11.40
2017-12-05T14:16:22.241Z,11.50
2017-12-05T14:18:49.681Z,11.30
2017-12-05T14:21:17.150Z,11.10
2017-12-05T14:23:44.605Z,11.30
2017-12-05T14:26:12.055Z,10.70
2017-12-05T14:28:40.298Z,10.90
2017-12-05T14:31:21.806Z,10.80
2017-12-05T14:36:54.774Z,11.10
2017-12-05T14:39:42.018Z,10.50
2017-12-05T14:42:09.481Z,10.50
2017-12-05T14:44:36.990Z,10.80
2017-12-05T14:47:04.435Z,11.10
2017-12-05T14:49:31.906Z,11.30
2017-12-05T14:51:59.345Z,11.30
2017-12-05T14:54:26.830Z,10.90
2017-12-05T14:56:54.287Z,10.80
2017-12-05T14:59:21.765Z,10.60
2017-12-05T15:01:50.022Z,10.40
2017-12-05T15:04:17.464Z,10.30
2017-12-05T15:06:45.362Z,10.70
2017-12-05T15:09:12.812Z,10.90
2017-12-05T15:11:41.037Z,10.90
2017-12-05T15:14:08.522Z,10.90
2017-12-05T15:16:35.985Z,11.10
2017-12-05T15:19:03.422Z,10.30
2017-12-05T15:21:30.917Z,10.50
2017-12-05T15:23:59.108Z,10.60
2017-12-05T15:26:26.572Z,10.60
2017-12-05T15:28:54.038Z,10.50
2017-12-05T15:31:21.667Z,10.20
2017-12-05T15:33:49.917Z,10.80
2017-12-05T15:36:17.419Z,10.80
2017-12-05T15:38:44.864Z,10.90
2017-12-05T15:41:13.069Z,11.30
2017-12-05T15:43:40.505Z,11.20
2017-12-05T15:46:07.949Z,11.50
2017-12-05T15:48:36.169Z,10.70
2017-12-05T15:53:38.221Z,10.60
2017-12-05T15:56:05.689Z,10.40
2017-12-05T15:58:33.149Z,10.50
2017-12-05T16:01:00.621Z,11.00
2017-12-05T16:03:35.206Z,10.90
2017-12-05T16:06:04.017Z,11.00
2017-12-05T16:08:32.218Z,11.00
2017-12-05T16:10:59.683Z,11.00
2017-12-05T16:13:27.189Z,11.10
2017-12-05T16:15:55.667Z,10.90
2017-12-05T16:18:23.898Z,10.30
2017-12-05T16:20:51.341Z,10.30
2017-12-05T16:23:18.791Z,10.30
2017-12-05T16:25:46.268Z,10.70
2017-12-05T16:28:13.693Z,10.70
2017-12-05T16:30:41.166Z,11.20
2017-12-05T16:33:08.622Z,10.70
2017-12-05T16:35:36.113Z,10.70
2017-12-05T16:38:03.565Z,10.80
2017-12-05T16:40:31.018Z,10.80
2017-12-05T16:42:58.457Z,11.10
2017-12-05T16:45:25.940Z,10.20
2017-12-05T16:47:53.400Z,10.70
2017-12-05T16:50:20.839Z,10.50
2017-12-05T16:52:48.314Z,10.90
2017-12-05T16:55:15.765Z,10.70
2017-12-05T16:57:43.217Z,11.20
2017-12-05T17:00:11.207Z,11.00
2017-12-05T17:02:38.658Z,10.90
2017-12-05T17:05:06.134Z,10.60
2017-12-05T17:07:33.590Z,10.40
2017-12-05T17:10:01.044Z,10.70
2017-12-05T17:12:28.500Z,10.90
2017-12-05T17:14:56.757Z,10.60
2017-12-05T17:17:24.234Z,10.60
2017-12-05T17:19:51.681Z,10.70
2017-12-05T17:22:19.149Z,11.10
2017-12-05T17:24:46.615Z,11.20
2017-12-05T17:27:14.128Z,10.90
2017-12-05T17:29:41.592Z,10.90
2017-12-05T17:32:09.069Z,10.60
2017-12-05T17:34:36.529Z,10.70
2017-12-05T17:37:04.016Z,11.20
2017-12-05T17:39:31.473Z,10.90
2017-12-05T17:41:58.909Z,10.60
2017-12-05T17:44:26.370Z,10.90
2017-12-05T17:46:53.833Z,10.90
2017-12-05T17:49:21.341Z,10.70
2017-12-05T17:51:48.769Z,10.80
2017-12-05T17:54:17.007Z,11.00
2017-12-05T17:56:44.478Z,11.00
2017-12-05T17:59:11.934Z,11.00
2017-12-05T18:01:39.429Z,10.80
2017-12-05T18:04:07.679Z,11.00
2017-12-05T18:06:35.177Z,11.00
2017-12-05T18:09:02.691Z,10.30
2017-12-05T18:11:30.189Z,10.20
2017-12-05T18:13:57.658Z,10.50
2017-12-05T18:16:25.112Z,11.00
2017-12-05T18:18:52.566Z,11.10
2017-12-05T18:21:20.048Z,11.20
2017-12-05T18:23:47.514Z,10.80
2017-12-05T18:26:14.992Z,10.40
2017-12-05T18:28:42.453Z,10.40
2017-12-05T18:31:09.942Z,9.90
2017-12-05T18:33:37.414Z,10.30
2017-12-05T18:36:04.858Z,10.50
2017-12-05T18:38:33.080Z,11.20
2017-12-05T18:41:00.524Z,11.20
2017-12-05T18:43:27.965Z,11.30
2017-12-05T18:45:55.611Z,11.20
2017-12-05T18:48:23.813Z,10.40
2017-12-05T18:50:51.285Z,10.30
2017-12-05T18:53:18.712Z,10.50
2017-12-05T18:55:46.199Z,10.30
2017-12-05T18:58:13.625Z,10.70
2017-12-05T19:00:41.127Z,10.30
2017-12-05T19:03:08.549Z,10.30
2017-12-05T19:05:36.018Z,10.70
2017-12-05T19:08:03.461Z,10.80
2017-12-05T19:10:30.925Z,10.80
2017-12-05T19:12:58.388Z,10.80
2017-12-05T19:15:25.846Z,10.80
2017-12-05T19:17:53.307Z,10.60
2017-12-05T19:20:20.781Z,10.40
2017-12-05T19:22:48.237Z,10.60
2017-12-05T19:25:15.681Z,10.70
2017-12-05T19:27:43.137Z,10.40
2017-12-05T19:30:10.600Z,10.30
2017-12-05T19:32:38.068Z,10.30
2017-12-05T19:35:05.521Z,10.60
2017-12-05T19:37:32.998Z,10.70
2017-12-05T19:40:00.436Z,10.40
2017-12-05T19:42:27.932Z,10.80
2017-12-05T19:44:55.371Z,11.00
2017-12-05T19:47:22.833Z,10.60
2017-12-05T19:49:50.297Z,10.60
2017-12-05T19:52:17.754Z,10.60
2017-12-05T19:54:45.287Z,10.50
2017-12-05T19:57:12.737Z,10.90
2017-12-05T19:59:40.220Z,11.00
2017-12-05T20:02:07.673Z,10.50
2017-12-05T20:04:35.132Z,10.90
2017-12-05T20:07:03.401Z,10.50
2017-12-05T20:09:30.888Z,10.50
2017-12-05T20:11:58.325Z,10.50
2017-12-05T20:14:25.793Z,10.80
2017-12-05T20:16:53.250Z,10.60
2017-12-05T20:19:20.710Z,10.10
2017-12-05T20:21:48.189Z,10.40
2017-12-05T20:24:16.431Z,10.40
2017-12-05T20:26:43.902Z,10.40
2017-12-05T20:29:11.382Z,10.50
2017-12-05T20:31:38.834Z,10.80
2017-12-05T20:34:06.319Z,10.80
2017-12-05T20:36:33.759Z,10.90
2017-12-05T20:39:02.913Z,10.80
2017-12-05T20:41:30.384Z,10.80
2017-12-05T20:43:57.831Z,10.70
2017-12-05T20:46:25.291Z,10.70
2017-12-05T20:48:52.754Z,10.30
2017-12-05T20:51:20.978Z,10.60
2017-12-05T20:53:49.207Z,10.70
2017-12-05T20:56:16.672Z,10.70
2017-12-05T20:58:44.165Z,10.60
2017-12-05T21:01:12.365Z,11.00
2017-12-05T21:03:39.930Z,10.90
2017-12-05T21:06:07.369Z,10.70
2017-12-05T21:08:34.846Z,10.80
2017-12-05T21:11:02.768Z,10.70
2017-12-05T21:13:30.236Z,10.90
2017-12-05T21:15:57.707Z,10.80
2017-12-05T21:18:25.158Z,10.70
2017-12-05T21:20:52.612Z,10.80
2017-12-05T21:23:20.837Z,10.50
2017-12-05T21:25:48.325Z,10.40
2017-12-05T21:28:16.548Z,10.50
2017-12-05T21:30:44.009Z,10.50
2017-12-05T21:33:11.459Z,10.50
2017-12-05T21:35:38.921Z,10.50
2017-12-05T21:38:06.385Z,10.70
2017-12-05T21:40:33.943Z,10.90
2017-12-05T21:43:01.405Z,10.70
2017-12-05T21:45:28.912Z,10.40
2017-12-05T21:47:57.200Z,10.60
2017-12-05T21:50:25.528Z,10.80
2017-12-05T21:52:52.993Z,10.80
2017-12-05T21:55:20.441Z,10.80
2017-12-05T21:57:47.926Z,10.70
2017-12-05T22:00:15.404Z,10.60
2017-12-05T22:02:43.641Z,10.50
2017-12-05T22:05:12.024Z,10.20
2017-12-05T22:07:39.461Z,10.20
2017-12-05T22:10:06.900Z,10.20
2017-12-05T22:12:34.380Z,10.40
2017-12-05T22:15:03.571Z,11.00
2017-12-05T22:17:31.022Z,10.90
2017-12-05T22:19:58.606Z,10.60
2017-12-05T22:22:26.259Z,10.60
2017-12-05T22:24:54.540Z,10.60
2017-12-05T22:27:22.039Z,10.60
2017-12-05T22:29:49.611Z,10.60
2017-12-05T22:32:17.815Z,10.70
2017-12-05T22:34:45.494Z,10.70
2017-12-05T22:37:13.008Z,10.70
2017-12-05T22:39:41.361Z,10.70
2017-12-05T22:42:08.790Z,10.70
2017-12-05T22:44:37.065Z,10.60
2017-12-05T22:47:05.996Z,10.40
2017-12-05T22:49:33.507Z,10.50
2017-12-05T22:52:00.986Z,10.60
2017-12-05T22:54:28.514Z,10.50
2017-12-05T22:56:56.110Z,10.10
2017-12-05T22:59:23.549Z,10.80
2017-12-05T23:01:51.018Z,11.30
2017-12-05T23:04:18.758Z,11.20
2017-12-05T23:06:46.218Z,11.20
2017-12-05T23:09:13.669Z,11.30
2017-12-05T23:11:41.274Z,11.10
2017-12-05T23:14:08.770Z,11.10
2017-12-05T23:16:36.985Z,10.60
2017-12-05T23:19:04.443Z,10.50
2017-12-05T23:21:31.911Z,10.80
2017-12-05T23:23:59.440Z,10.90
2017-12-05T23:26:26.924Z,10.20
2017-12-05T23:28:54.649Z,10.30
2017-12-05T23:31:22.899Z,10.10
2017-12-05T23:33:50.397Z,10.10
2017-12-05T23:36:18.087Z,10.30
2017-12-05T23:38:45.581Z,10.50
2017-12-05T23:41:13.789Z,10.90
2017-12-05T23:43:41.255Z,10.90
2017-12-05T23:46:09.827Z,10.50
2017-12-05T23:48:37.282Z,10.60
2017-12-05T23:51:04.816Z,10.70
2017-12-05T23:53:32.292Z,10.20
2017-12-05T23:55:59.773Z,10.70
2017-12-05T23:58:27.286Z,10.30
